Time;durP1;ratioP1;P1;durP2;ratioP2;P2;SDS_P1;SDS_P2;PMS_P1;PMS_P2;Temp;Humidity;BMP_temperature;BMP_pressure;BME280_temperature;BME280_humidity;BME280_pressure;Samples;Min_cycle;Max_cycle;Signal;HPM_P1;HPM_P2
2021/12/28 00:00:57;;;;;;;;;;;22.80;52.80;;;;;;5074756;28;1017;-45
2021/12/28 00:03:24;;;;;;;;;;;22.80;52.80;;;;;;5075298;28;1018;-45
2021/12/28 00:05:51;;;;;;;;;;;22.80;52.70;;;;;;5075321;28;1011;-36
2021/12/28 00:08:19;;;;;;;;;;;22.80;52.60;;;;;;5076348;28;939;-33
2021/12/28 00:10:46;;;;;;;;;;;22.80;52.60;;;;;;5075715;28;1979;-34
2021/12/28 00:13:13;;;;;;;;;;;22.80;52.50;;;;;;5075245;28;988;-34
2021/12/28 00:15:49;;;;;;;;;;;22.90;52.50;;;;;;5075376;28;959;-34
2021/12/28 00:18:16;;;;;;;;;;;22.90;52.40;;;;;;5074922;27;959;-34
2021/12/28 00:20:44;;;;;;;;;;;22.90;52.40;;;;;;5074725;28;1012;-35
2021/12/28 00:23:13;;;;;;;;;;;22.90;52.30;;;;;;5077228;27;1841;-34
2021/12/28 00:25:41;;;;;;;;;;;23.00;52.30;;;;;;5078967;28;904;-34
2021/12/28 00:28:08;;;;;;;;;;;22.90;52.20;;;;;;5079435;27;1184;-33
2021/12/28 00:30:35;;;;;;;;;;;22.90;52.10;;;;;;5078440;27;1980;-34
2021/12/28 00:33:02;;;;;;;;;;;22.90;52.10;;;;;;5079039;27;1110;-34
2021/12/28 00:35:31;;;;;;;;;;;23.00;52.10;;;;;;5078513;27;932;-34
2021/12/28 00:37:58;;;;;;;;;;;23.00;52.00;;;;;;5078817;28;1022;-35
2021/12/28 00:40:25;;;;;;;;;;;23.00;52.00;;;;;;5078680;28;1022;-34
2021/12/28 00:42:53;;;;;;;;;;;23.00;51.90;;;;;;5078498;28;1736;-34
2021/12/28 00:45:20;;;;;;;;;;;23.00;51.90;;;;;;5078497;28;1023;-34
2021/12/28 00:47:47;;;;;;;;;;;23.00;51.90;;;;;;5079149;28;976;-34
2021/12/28 00:50:15;;;;;;;;;;;22.90;52.00;;;;;;5078198;28;1898;-34
2021/12/28 00:52:42;;;;;;;;;;;23.00;52.00;;;;;;5078479;28;923;-34
2021/12/28 00:55:10;;;;;;;;;;;23.00;51.90;;;;;;5078453;28;991;-34
2021/12/28 00:57:37;;;;;;;;;;;23.00;51.90;;;;;;5078428;28;988;-34
2021/12/28 01:00:07;;;;;;;;;;;23.00;51.90;;;;;;5077663;28;1255;-34
2021/12/28 01:02:34;;;;;;;;;;;23.00;51.90;;;;;;5078144;28;990;-34
2021/12/28 01:05:01;;;;;;;;;;;23.00;51.90;;;;;;5078497;27;1010;-33
2021/12/28 01:07:27;;;;;;;;;;;22.90;51.80;;;;;;5078278;28;1025;-34
2021/12/28 01:09:54;;;;;;;;;;;23.00;51.90;;;;;;5078416;28;1897;-34
2021/12/28 01:12:21;;;;;;;;;;;22.90;51.80;;;;;;5078588;27;936;-34
2021/12/28 01:14:48;;;;;;;;;;;23.00;51.80;;;;;;5077995;28;1761;-35
2021/12/28 01:17:16;;;;;;;;;;;23.00;51.70;;;;;;5078427;28;1001;-35
2021/12/28 01:19:43;;;;;;;;;;;23.00;51.70;;;;;;5078476;28;1011;-33
2021/12/28 01:22:10;;;;;;;;;;;23.00;51.80;;;;;;5077605;27;1005;-34
2021/12/28 01:24:36;;;;;;;;;;;23.00;51.80;;;;;;5078500;28;979;-33
2021/12/28 01:27:04;;;;;;;;;;;23.00;51.70;;;;;;5077898;28;991;-34
2021/12/28 01:29:32;;;;;;;;;;;22.90;51.80;;;;;;5078221;28;1018;-37
2021/12/28 01:31:59;;;;;;;;;;;22.90;51.80;;;;;;5077822;27;1910;-36
2021/12/28 01:34:27;;;;;;;;;;;22.90;51.80;;;;;;5076390;28;979;-37
2021/12/28 01:36:54;;;;;;;;;;;23.00;51.80;;;;;;5077400;28;1019;-36
2021/12/28 01:39:21;;;;;;;;;;;23.00;51.70;;;;;;5077470;28;1006;-38
2021/12/28 01:41:48;;;;;;;;;;;23.00;51.80;;;;;;5077393;28;967;-38
2021/12/28 01:44:14;;;;;;;;;;;23.00;51.70;;;;;;5077494;28;998;-36
2021/12/28 01:46:42;;;;;;;;;;;23.00;51.70;;;;;;5077302;28;999;-37
2021/12/28 01:49:09;;;;;;;;;;;23.00;51.70;;;;;;5077350;28;996;-37
2021/12/28 01:51:37;;;;;;;;;;;23.00;51.70;;;;;;5077363;28;1902;-38
2021/12/28 01:54:05;;;;;;;;;;;23.00;51.70;;;;;;5077442;28;1078;-36
2021/12/28 01:56:34;;;;;;;;;;;23.00;51.80;;;;;;5077004;28;927;-36
2021/12/28 01:59:00;;;;;;;;;;;23.00;51.70;;;;;;5077287;27;1128;-36
2021/12/28 02:01:28;;;;;;;;;;;23.00;51.70;;;;;;5076964;28;1019;-36
2021/12/28 02:03:55;;;;;;;;;;;23.00;51.70;;;;;;5077417;28;1870;-36
2021/12/28 02:06:25;;;;;;;;;;;22.90;51.60;;;;;;5077158;28;1027;-38
2021/12/28 02:08:53;;;;;;;;;;;22.90;51.60;;;;;;5076763;28;1012;-45
2021/12/28 02:11:20;;;;;;;;;;;22.90;51.70;;;;;;5076593;28;1909;-37
2021/12/28 02:13:47;;;;;;;;;;;22.90;51.70;;;;;;5076974;28;946;-37
2021/12/28 02:16:14;;;;;;;;;;;22.90;51.70;;;;;;5077080;28;991;-36
2021/12/28 02:18:40;;;;;;;;;;;22.90;51.60;;;;;;5076761;28;1043;-37
2021/12/28 02:21:09;;;;;;;;;;;22.90;51.60;;;;;;5076573;28;999;-37
2021/12/28 02:23:36;;;;;;;;;;;22.90;51.80;;;;;;5076765;28;1012;-36
2021/12/28 02:26:03;;;;;;;;;;;22.90;51.80;;;;;;5077120;28;1097;-38
2021/12/28 02:28:30;;;;;;;;;;;22.90;51.70;;;;;;5077072;28;1070;-37
2021/12/28 02:30:58;;;;;;;;;;;22.90;51.70;;;;;;5076294;28;1871;-36
2021/12/28 02:33:25;;;;;;;;;;;22.90;51.80;;;;;;5076598;28;970;-36
2021/12/28 02:35:53;;;;;;;;;;;22.90;51.70;;;;;;5076399;28;983;-36
2021/12/28 02:38:21;;;;;;;;;;;22.90;51.80;;;;;;5076806;28;1011;-36
2021/12/28 02:40:48;;;;;;;;;;;22.90;51.80;;;;;;5076485;28;1023;-38
2021/12/28 02:43:16;;;;;;;;;;;22.90;52.90;;;;;;5075896;28;852;-37
2021/12/28 02:45:47;;;;;;;;;;;22.90;51.80;;;;;;5076324;28;994;-38
2021/12/28 02:48:14;;;;;;;;;;;22.90;51.80;;;;;;5076807;28;1847;-37
2021/12/28 02:50:43;;;;;;;;;;;22.90;51.70;;;;;;5075995;28;1902;-37
2021/12/28 02:53:11;;;;;;;;;;;22.90;51.80;;;;;;5076665;28;966;-36
2021/12/28 02:55:39;;;;;;;;;;;22.90;51.70;;;;;;5076243;28;1003;-38
2021/12/28 02:58:07;;;;;;;;;;;22.90;51.70;;;;;;5076190;28;1126;-40
2021/12/28 03:00:35;;;;;;;;;;;22.90;51.70;;;;;;5076118;28;995;-38
2021/12/28 03:03:05;;;;;;;;;;;22.90;51.70;;;;;;5076246;28;1079;-36
2021/12/28 03:05:32;;;;;;;;;;;22.90;51.70;;;;;;5075899;28;967;-36
2021/12/28 03:07:59;;;;;;;;;;;22.90;51.70;;;;;;5076395;27;1108;-37
2021/12/28 03:10:26;;;;;;;;;;;22.90;51.60;;;;;;5075983;28;2015;-39
2021/12/28 03:12:54;;;;;;;;;;;22.90;51.60;;;;;;5076723;28;998;-37
2021/12/28 03:15:21;;;;;;;;;;;22.90;51.60;;;;;;5075653;28;979;-37
2021/12/28 03:17:58;;;;;;;;;;;22.90;51.50;;;;;;5076561;28;1042;-45
2021/12/28 03:20:24;;;;;;;;;;;22.90;51.60;;;;;;5075654;28;948;-39
2021/12/28 03:22:51;;;;;;;;;;;22.90;51.60;;;;;;5076108;28;1050;-38
2021/12/28 03:25:18;;;;;;;;;;;22.90;51.60;;;;;;5075791;28;975;-38
2021/12/28 03:27:45;;;;;;;;;;;22.90;51.70;;;;;;5075721;28;947;-37
2021/12/28 03:30:14;;;;;;;;;;;22.90;51.60;;;;;;5075748;28;983;-38
2021/12/28 03:32:41;;;;;;;;;;;22.90;51.60;;;;;;5075995;28;1906;-39
2021/12/28 03:35:09;;;;;;;;;;;22.90;51.70;;;;;;5075613;27;1779;-37
2021/12/28 03:37:36;;;;;;;;;;;22.90;51.70;;;;;;5075876;28;939;-37
2021/12/28 03:40:04;;;;;;;;;;;22.90;51.60;;;;;;5075585;28;976;-38
2021/12/28 03:42:31;;;;;;;;;;;22.90;51.60;;;;;;5075683;28;955;-37
2021/12/28 03:44:58;;;;;;;;;;;22.90;51.70;;;;;;5075507;28;994;-39
2021/12/28 03:47:26;;;;;;;;;;;22.90;51.70;;;;;;5075952;27;971;-37
2021/12/28 03:49:53;;;;;;;;;;;22.90;51.60;;;;;;5074581;28;944;-39
2021/12/28 03:52:20;;;;;;;;;;;22.90;51.60;;;;;;5073975;28;1902;-37
2021/12/28 03:54:46;;;;;;;;;;;22.90;51.60;;;;;;5074481;27;884;-38
2021/12/28 03:57:13;;;;;;;;;;;22.90;51.70;;;;;;5073686;28;1097;-37
2021/12/28 03:59:40;;;;;;;;;;;22.90;51.70;;;;;;5073594;28;1187;-41
2021/12/28 04:02:07;;;;;;;;;;;22.90;51.70;;;;;;5074040;27;956;-39
2021/12/28 04:04:35;;;;;;;;;;;22.90;51.60;;;;;;5074771;28;947;-39
2021/12/28 04:07:05;;;;;;;;;;;22.90;51.60;;;;;;5075350;27;1757;-37
2021/12/28 04:09:59;;;;;;;;;;;22.90;51.60;;;;;;5075043;27;991;-38
2021/12/28 04:12:27;;;;;;;;;;;22.90;51.50;;;;;;5075430;28;1905;-38
2021/12/28 04:14:53;;;;;;;;;;;22.90;51.50;;;;;;5075217;28;1007;-42
2021/12/28 04:17:20;;;;;;;;;;;22.90;51.60;;;;;;5074690;28;1015;-38
2021/12/28 04:19:48;;;;;;;;;;;22.90;51.60;;;;;;5075011;28;995;-36
2021/12/28 04:22:15;;;;;;;;;;;22.90;51.60;;;;;;5074932;28;1015;-39
2021/12/28 04:24:42;;;;;;;;;;;22.90;51.70;;;;;;5075349;28;877;-36
2021/12/28 04:27:09;;;;;;;;;;;22.90;51.60;;;;;;5075071;28;1003;-38
2021/12/28 04:29:36;;;;;;;;;;;22.90;51.60;;;;;;5074903;28;1000;-36
2021/12/28 04:32:03;;;;;;;;;;;22.90;51.60;;;;;;5074803;28;1909;-37
2021/12/28 04:34:30;;;;;;;;;;;22.90;51.60;;;;;;5074935;27;931;-38
2021/12/28 04:36:58;;;;;;;;;;;22.90;51.60;;;;;;5074634;28;999;-40
2021/12/28 04:39:25;;;;;;;;;;;22.90;51.60;;;;;;5074664;28;1026;-36
2021/12/28 04:41:52;;;;;;;;;;;22.80;51.70;;;;;;5074925;27;980;-38
2021/12/28 04:44:23;;;;;;;;;;;22.80;51.70;;;;;;5074711;28;935;-38
2021/12/28 04:46:51;;;;;;;;;;;22.80;51.90;;;;;;5074559;27;1202;-37
2021/12/28 04:49:19;;;;;;;;;;;22.80;51.90;;;;;;5074760;28;1050;-36
2021/12/28 04:51:46;;;;;;;;;;;22.70;52.00;;;;;;5074525;28;1976;-38
2021/12/28 04:54:15;;;;;;;;;;;22.70;52.10;;;;;;5074622;28;967;-37
2021/12/28 04:56:41;;;;;;;;;;;22.70;52.10;;;;;;5074393;27;995;-37
2021/12/28 04:59:08;;;;;;;;;;;22.70;52.00;;;;;;5074165;28;1247;-38
2021/12/28 05:01:36;;;;;;;;;;;22.80;52.10;;;;;;5074283;28;1013;-40
2021/12/28 05:04:04;;;;;;;;;;;22.80;52.10;;;;;;5074819;27;1019;-41
2021/12/28 05:06:31;;;;;;;;;;;22.80;52.10;;;;;;5074563;28;1006;-36
2021/12/28 05:08:57;;;;;;;;;;;22.80;52.10;;;;;;5074588;28;865;-37
2021/12/28 05:11:25;;;;;;;;;;;22.80;52.10;;;;;;5077674;28;1901;-37
2021/12/28 05:13:52;;;;;;;;;;;22.80;52.10;;;;;;5077885;28;936;-41
2021/12/28 05:16:19;;;;;;;;;;;22.90;52.10;;;;;;5077741;28;1034;-37
2021/12/28 05:18:46;;;;;;;;;;;22.80;52.00;;;;;;5077281;28;927;-37
2021/12/28 05:21:13;;;;;;;;;;;22.80;52.10;;;;;;5077665;28;995;-37
2021/12/28 05:23:39;;;;;;;;;;;22.90;52.10;;;;;;5077787;28;928;-37
2021/12/28 05:26:06;;;;;;;;;;;22.90;52.00;;;;;;5078196;28;965;-37
2021/12/28 05:28:34;;;;;;;;;;;22.80;52.00;;;;;;5077263;28;1022;-39
2021/12/28 05:31:01;;;;;;;;;;;22.90;52.10;;;;;;5077274;28;947;-37
2021/12/28 05:33:27;;;;;;;;;;;22.90;52.10;;;;;;5076626;28;1968;-37
2021/12/28 05:35:54;;;;;;;;;;;22.90;52.10;;;;;;5077291;28;924;-37
2021/12/28 05:38:21;;;;;;;;;;;22.90;52.10;;;;;;5076787;28;939;-39
2021/12/28 05:40:47;;;;;;;;;;;22.90;52.10;;;;;;5076921;28;1011;-38
2021/12/28 05:43:15;;;;;;;;;;;22.90;52.10;;;;;;5077763;28;1088;-37
2021/12/28 05:45:43;;;;;;;;;;;22.90;52.20;;;;;;5077568;28;927;-37
2021/12/28 05:48:10;;;;;;;;;;;22.80;52.20;;;;;;5076872;27;967;-37
2021/12/28 05:50:37;;;;;;;;;;;22.90;52.30;;;;;;5076386;28;1003;-38
2021/12/28 05:53:04;;;;;;;;;;;22.80;52.30;;;;;;5077260;28;1970;-38
2021/12/28 05:55:32;;;;;;;;;;;22.80;52.30;;;;;;5077149;28;1073;-40
2021/12/28 05:57:58;;;;;;;;;;;22.80;52.40;;;;;;5076606;28;1082;-41
2021/12/28 06:00:28;;;;;;;;;;;22.80;52.40;;;;;;5077017;28;935;-41
2021/12/28 06:02:56;;;;;;;;;;;22.80;52.40;;;;;;5076888;27;1007;-42
2021/12/28 06:05:23;;;;;;;;;;;22.80;52.40;;;;;;5076973;28;1022;-39
2021/12/28 06:07:50;;;;;;;;;;;22.80;52.40;;;;;;5076359;28;972;-42
2021/12/28 06:10:17;;;;;;;;;;;22.80;52.40;;;;;;5076496;28;1012;-41
2021/12/28 06:12:43;;;;;;;;;;;22.80;52.40;;;;;;5076978;28;1898;-39
2021/12/28 06:15:10;;;;;;;;;;;22.80;52.40;;;;;;5076629;28;988;-41
2021/12/28 06:17:37;;;;;;;;;;;22.80;52.40;;;;;;5076881;28;1050;-40
2021/12/28 06:20:06;;;;;;;;;;;22.80;52.40;;;;;;5075733;28;1788;-40
2021/12/28 06:22:33;;;;;;;;;;;22.80;52.50;;;;;;5076837;28;1031;-42
2021/12/28 06:25:00;;;;;;;;;;;22.80;52.40;;;;;;5076313;28;936;-40
2021/12/28 06:27:26;;;;;;;;;;;22.80;53.50;;;;;;5076790;28;1030;-39
2021/12/28 06:29:53;;;;;;;;;;;22.80;52.40;;;;;;5076321;28;1004;-37
2021/12/28 06:32:20;;;;;;;;;;;22.90;52.40;;;;;;5075768;28;1979;-37
2021/12/28 06:34:47;;;;;;;;;;;22.90;52.40;;;;;;5076326;28;942;-39
2021/12/28 06:37:15;;;;;;;;;;;22.80;52.30;;;;;;5076266;28;1004;-36
2021/12/28 06:39:42;;;;;;;;;;;22.80;52.30;;;;;;5076528;28;995;-37
2021/12/28 06:42:08;;;;;;;;;;;22.90;52.30;;;;;;5076024;28;1018;-37
2021/12/28 06:44:35;;;;;;;;;;;22.90;52.10;;;;;;5076375;27;1023;-39
2021/12/28 06:47:02;;;;;;;;;;;22.90;52.00;;;;;;5076329;28;1021;-45
2021/12/28 06:49:29;;;;;;;;;;;22.90;52.20;;;;;;5075985;27;1010;-45
2021/12/28 06:51:56;;;;;;;;;;;22.80;52.20;;;;;;5076238;28;1971;-45
2021/12/28 06:54:24;;;;;;;;;;;22.80;52.20;;;;;;5075544;27;924;-42
2021/12/28 06:56:51;;;;;;;;;;;22.80;52.20;;;;;;5076245;28;994;-40
2021/12/28 06:59:17;;;;;;;;;;;22.80;52.30;;;;;;5075536;28;1085;-40
2021/12/28 07:01:44;;;;;;;;;;;22.80;52.30;;;;;;5075967;28;1037;-42
2021/12/28 07:04:11;;;;;;;;;;;22.90;52.30;;;;;;5075581;28;944;-43
2021/12/28 07:06:38;;;;;;;;;;;22.90;52.30;;;;;;5075437;28;995;-39
2021/12/28 07:09:04;;;;;;;;;;;22.90;52.20;;;;;;5075607;28;988;-42
2021/12/28 07:11:32;;;;;;;;;;;22.90;52.70;;;;;;5075840;27;1024;-40
2021/12/28 07:13:59;;;;;;;;;;;22.90;52.70;;;;;;5075484;28;1984;-33
2021/12/28 07:16:26;;;;;;;;;;;22.90;52.70;;;;;;5075763;28;966;-33
2021/12/28 07:18:53;;;;;;;;;;;22.80;53.00;;;;;;5076120;28;992;-33
2021/12/28 07:21:19;;;;;;;;;;;22.80;53.10;;;;;;5075684;28;1006;-40
2021/12/28 07:23:46;;;;;;;;;;;22.80;53.10;;;;;;5075819;28;923;-33
2021/12/28 07:26:13;;;;;;;;;;;22.80;53.10;;;;;;5075732;28;884;-33
2021/12/28 07:28:41;;;;;;;;;;;22.90;53.20;;;;;;5075370;28;1027;-33
2021/12/28 07:31:08;;;;;;;;;;;23.00;53.20;;;;;;5075570;27;1002;-33
2021/12/28 07:33:34;;;;;;;;;;;22.90;52.80;;;;;;5074534;28;1906;-34
2021/12/28 07:36:01;;;;;;;;;;;23.00;53.30;;;;;;5075007;28;1004;-34
2021/12/28 07:38:28;;;;;;;;;;;23.00;53.10;;;;;;5075287;28;1003;-34
2021/12/28 07:40:55;;;;;;;;;;;23.10;53.00;;;;;;5075201;28;939;-34
2021/12/28 07:43:22;;;;;;;;;;;23.10;53.00;;;;;;5074379;28;890;-33
2021/12/28 07:45:51;;;;;;;;;;;23.10;53.00;;;;;;5075258;28;971;-33
2021/12/28 07:48:18;;;;;;;;;;;23.20;53.00;;;;;;5074225;28;983;-34
2021/12/28 07:50:44;;;;;;;;;;;23.10;52.30;;;;;;5073994;28;1014;-37
2021/12/28 07:53:11;;;;;;;;;;;23.10;52.00;;;;;;5073836;28;1911;-33
2021/12/28 07:55:38;;;;;;;;;;;23.10;52.00;;;;;;5073470;28;995;-34
2021/12/28 07:58:04;;;;;;;;;;;23.10;51.40;;;;;;5073726;28;1241;-34
2021/12/28 08:00:31;;;;;;;;;;;23.10;51.30;;;;;;5074232;28;979;-34
2021/12/28 08:03:00;;;;;;;;;;;23.00;51.20;;;;;;5074439;28;973;-33
2021/12/28 08:05:27;;;;;;;;;;;23.00;51.00;;;;;;5074406;28;943;-33
2021/12/28 08:07:54;;;;;;;;;;;23.00;50.80;;;;;;5075602;28;972;-34
2021/12/28 08:10:21;;;;;;;;;;;23.00;50.70;;;;;;5075125;28;1031;-34
2021/12/28 08:12:49;;;;;;;;;;;23.00;51.10;;;;;;5074474;28;1897;-34
2021/12/28 08:15:16;;;;;;;;;;;23.00;51.00;;;;;;5075030;27;1023;-34
2021/12/28 08:17:43;;;;;;;;;;;23.00;51.50;;;;;;5073753;28;1031;-33
2021/12/28 08:20:12;;;;;;;;;;;22.90;52.70;;;;;;5073551;28;928;-33
2021/12/28 08:22:40;;;;;;;;;;;22.90;51.80;;;;;;5074215;28;935;-34
2021/12/28 08:25:08;;;;;;;;;;;22.90;53.00;;;;;;5073841;28;876;-33
2021/12/28 08:27:34;;;;;;;;;;;22.90;52.00;;;;;;5073514;28;1006;-37
2021/12/28 08:30:01;;;;;;;;;;;22.90;51.90;;;;;;5072647;28;1026;-39
2021/12/28 08:32:28;;;;;;;;;;;22.90;52.00;;;;;;5073090;28;1902;-36
2021/12/28 08:34:55;;;;;;;;;;;22.90;52.10;;;;;;5073573;28;986;-36
2021/12/28 08:37:23;;;;;;;;;;;22.90;52.00;;;;;;5073744;28;1027;-38
2021/12/28 08:39:50;;;;;;;;;;;22.90;52.20;;;;;;5073687;27;1023;-36
2021/12/28 08:42:17;;;;;;;;;;;22.90;52.30;;;;;;5073937;28;1036;-38
2021/12/28 08:44:44;;;;;;;;;;;22.90;52.10;;;;;;5076837;27;1098;-39
2021/12/28 08:47:11;;;;;;;;;;;22.90;52.30;;;;;;5076749;27;920;-39
2021/12/28 08:49:37;;;;;;;;;;;22.90;52.30;;;;;;5077138;28;987;-37
2021/12/28 08:52:04;;;;;;;;;;;22.90;52.30;;;;;;5077079;28;1182;-36
2021/12/28 08:54:33;;;;;;;;;;;22.80;52.30;;;;;;5076376;27;1909;-35
2021/12/28 08:57:00;;;;;;;;;;;22.90;52.40;;;;;;5075448;28;931;-35
2021/12/28 08:59:27;;;;;;;;;;;22.90;52.40;;;;;;5075572;27;1187;-38
2021/12/28 09:01:55;;;;;;;;;;;22.90;52.50;;;;;;5075979;28;1178;-36
2021/12/28 09:04:22;;;;;;;;;;;22.90;52.50;;;;;;5075823;27;955;-37
2021/12/28 09:06:49;;;;;;;;;;;22.90;52.60;;;;;;5075337;27;975;-36
2021/12/28 09:09:16;;;;;;;;;;;22.90;52.50;;;;;;5075214;28;940;-38
2021/12/28 09:11:44;;;;;;;;;;;22.90;52.60;;;;;;5075917;28;1001;-38
2021/12/28 09:14:11;;;;;;;;;;;22.80;52.70;;;;;;5076309;28;1921;-35
2021/12/28 09:16:38;;;;;;;;;;;22.80;52.60;;;;;;5076519;28;1010;-37
2021/12/28 09:19:04;;;;;;;;;;;22.90;52.80;;;;;;5076332;28;1471;-37
2021/12/28 09:21:31;;;;;;;;;;;22.90;52.70;;;;;;5076583;28;1016;-38
2021/12/28 09:23:58;;;;;;;;;;;22.90;52.80;;;;;;5076406;28;990;-37
2021/12/28 09:26:25;;;;;;;;;;;22.90;52.70;;;;;;5075812;28;981;-37
2021/12/28 09:28:53;;;;;;;;;;;22.80;52.70;;;;;;5076332;28;952;-39
2021/12/28 09:31:20;;;;;;;;;;;22.80;52.80;;;;;;5076142;28;997;-38
2021/12/28 09:33:47;;;;;;;;;;;22.90;52.70;;;;;;5076184;28;1902;-36
2021/12/28 09:36:15;;;;;;;;;;;22.80;52.60;;;;;;5076620;28;893;-36
2021/12/28 09:38:42;;;;;;;;;;;22.90;52.60;;;;;;5076242;28;952;-43
2021/12/28 09:41:09;;;;;;;;;;;22.90;52.80;;;;;;5076097;28;1004;-43
2021/12/28 09:43:36;;;;;;;;;;;22.90;52.70;;;;;;5076126;28;1008;-43
2021/12/28 09:46:04;;;;;;;;;;;22.90;52.70;;;;;;5075747;28;924;-43
2021/12/28 09:48:32;;;;;;;;;;;22.90;52.80;;;;;;5077030;28;1784;-43
2021/12/28 09:50:59;;;;;;;;;;;22.80;52.70;;;;;;5076095;28;1051;-40
2021/12/28 09:53:27;;;;;;;;;;;22.90;53.00;;;;;;5076998;28;1953;-43
2021/12/28 09:55:54;;;;;;;;;;;22.90;52.70;;;;;;5074965;28;993;-36
2021/12/28 09:58:21;;;;;;;;;;;22.90;52.80;;;;;;5074510;28;1179;-36
2021/12/28 10:00:47;;;;;;;;;;;22.90;52.70;;;;;;5076250;28;981;-37
2021/12/28 10:03:16;;;;;;;;;;;22.90;52.50;;;;;;5075812;28;999;-39
2021/12/28 10:05:42;;;;;;;;;;;22.90;52.50;;;;;;5076387;28;975;-38
2021/12/28 10:08:10;;;;;;;;;;;22.90;52.50;;;;;;5075283;28;948;-38
2021/12/28 10:10:38;;;;;;;;;;;22.90;52.50;;;;;;5075151;27;955;-36
2021/12/28 10:13:06;;;;;;;;;;;22.90;52.70;;;;;;5075581;28;1911;-36
2021/12/28 10:15:34;;;;;;;;;;;22.90;53.90;;;;;;5074935;28;945;-38
2021/12/28 10:18:02;;;;;;;;;;;22.90;52.90;;;;;;5075851;28;1011;-37
2021/12/28 10:20:32;;;;;;;;;;;22.90;52.80;;;;;;5076482;28;971;-36
2021/12/28 10:23:01;;;;;;;;;;;22.90;52.80;;;;;;5075441;28;1866;-43
2021/12/28 10:25:29;;;;;;;;;;;23.00;52.70;;;;;;5075451;28;980;-44
2021/12/28 10:27:58;;;;;;;;;;;22.90;52.80;;;;;;5074703;28;1033;-43
2021/12/28 10:30:26;;;;;;;;;;;22.90;52.70;;;;;;5075311;28;1003;-42
2021/12/28 10:32:54;;;;;;;;;;;22.90;52.90;;;;;;5075241;28;1979;-43
2021/12/28 10:35:22;;;;;;;;;;;22.90;52.90;;;;;;5075176;27;931;-43
2021/12/28 10:37:51;;;;;;;;;;;22.90;52.90;;;;;;5075109;28;965;-44
2021/12/28 10:40:22;;;;;;;;;;;22.90;52.80;;;;;;5075744;28;995;-36
2021/12/28 10:42:52;;;;;;;;;;;23.00;53.10;;;;;;5076098;28;1042;-36
2021/12/28 10:45:20;;;;;;;;;;;22.90;52.90;;;;;;5075881;28;972;-36
2021/12/28 10:47:47;;;;;;;;;;;22.90;53.20;;;;;;5076333;28;969;-31
2021/12/28 10:50:22;;;;;;;;;;;22.90;53.00;;;;;;5075903;28;952;-32
2021/12/28 10:52:59;;;;;;;;;;;22.90;53.10;;;;;;5074645;28;1905;-31
2021/12/28 10:55:27;;;;;;;;;;;22.90;53.10;;;;;;5075682;27;1018;-35
2021/12/28 10:57:54;;;;;;;;;;;23.00;53.10;;;;;;5074863;28;974;-35
2021/12/28 11:00:25;;;;;;;;;;;22.90;52.70;;;;;;5074206;28;983;-35
2021/12/28 11:02:51;;;;;;;;;;;22.90;52.60;;;;;;5073958;28;992;-38
2021/12/28 11:05:32;;;;;;;;;;;22.90;52.80;;;;;;5073724;28;853;-37
2021/12/28 11:08:01;;;;;;;;;;;22.90;53.30;;;;;;5073556;28;1004;-35
2021/12/28 11:10:28;;;;;;;;;;;22.90;53.20;;;;;;5074075;28;1067;-36
2021/12/28 11:12:55;;;;;;;;;;;22.90;53.40;;;;;;5075178;28;1902;-35
2021/12/28 11:15:23;;;;;;;;;;;22.90;53.40;;;;;;5074459;27;939;-38
2021/12/28 11:17:49;;;;;;;;;;;22.90;53.40;;;;;;5074654;28;964;-35
2021/12/28 11:20:16;;;;;;;;;;;22.90;53.30;;;;;;5075040;28;1034;-36
2021/12/28 11:22:58;;;;;;;;;;;23.00;53.10;;;;;;5074736;28;992;-35
2021/12/28 11:25:27;;;;;;;;;;;23.00;52.90;;;;;;5076538;27;1720;-39
2021/12/28 11:28:11;;;;;;;;;;;23.00;53.10;;;;;;5074530;28;1006;-35
2021/12/28 11:30:38;;;;;;;;;;;23.00;53.10;;;;;;5074110;28;915;-36
2021/12/28 11:33:05;;;;;;;;;;;23.00;52.70;;;;;;5074227;28;1898;-36
2021/12/28 11:35:32;;;;;;;;;;;23.00;52.70;;;;;;5073785;28;932;-35
2021/12/28 11:37:59;;;;;;;;;;;23.00;52.80;;;;;;5074015;28;1130;-37
2021/12/28 11:40:27;;;;;;;;;;;23.10;52.90;;;;;;5073688;27;935;-35
2021/12/28 11:42:55;;;;;;;;;;;23.00;52.60;;;;;;5072681;28;984;-35
2021/12/28 11:45:21;;;;;;;;;;;23.00;52.80;;;;;;5072733;28;1012;-36
2021/12/28 11:47:48;;;;;;;;;;;23.00;52.90;;;;;;5073087;28;1071;-35
2021/12/28 11:50:16;;;;;;;;;;;23.00;52.80;;;;;;5072791;28;897;-35
2021/12/28 11:52:42;;;;;;;;;;;23.00;53.00;;;;;;5072494;28;1007;-37
2021/12/28 11:55:10;;;;;;;;;;;23.00;52.60;;;;;;5072471;28;1875;-37
2021/12/28 11:57:49;;;;;;;;;;;23.10;52.80;;;;;;5074242;28;1127;-36
2021/12/28 12:00:17;;;;;;;;;;;23.00;52.90;;;;;;5033189;28;881;-35
2021/12/28 12:02:45;;;;;;;;;;;23.10;52.90;;;;;;5033712;28;940;-35
2021/12/28 12:05:13;;;;;;;;;;;23.00;53.00;;;;;;5032610;28;945;-35
2021/12/28 12:07:40;;;;;;;;;;;23.00;53.00;;;;;;5032557;28;1122;-36
2021/12/28 12:10:12;;;;;;;;;;;23.00;52.90;;;;;;5032774;28;965;-35
2021/12/28 12:12:48;;;;;;;;;;;23.10;53.10;;;;;;5032759;28;1088;-35
2021/12/28 12:15:16;;;;;;;;;;;23.00;52.80;;;;;;5032806;28;1983;-35
2021/12/28 12:17:44;;;;;;;;;;;23.10;53.00;;;;;;5033258;28;976;-35
2021/12/28 12:20:22;;;;;;;;;;;23.10;53.10;;;;;;5034261;28;1788;-35
2021/12/28 12:22:50;;;;;;;;;;;23.10;53.00;;;;;;5033801;28;905;-35
2021/12/28 12:25:18;;;;;;;;;;;23.00;52.90;;;;;;5033747;28;986;-36
2021/12/28 12:27:48;;;;;;;;;;;23.00;52.90;;;;;;5033841;28;923;-36
2021/12/28 12:30:34;;;;;;;;;;;23.10;52.90;;;;;;5033863;28;1050;-38
2021/12/28 12:33:01;;;;;;;;;;;23.00;52.80;;;;;;5033051;28;1097;-35
2021/12/28 12:35:28;;;;;;;;;;;23.00;52.90;;;;;;5033681;28;1902;-35
2021/12/28 12:37:55;;;;;;;;;;;23.10;53.00;;;;;;5034069;28;1000;-35
2021/12/28 12:40:22;;;;;;;;;;;23.10;52.90;;;;;;5033680;28;1011;-37
2021/12/28 12:43:04;;;;;;;;;;;23.10;52.90;;;;;;5032858;28;999;-36
2021/12/28 12:45:49;;;;;;;;;;;23.10;52.80;;;;;;5032292;28;1118;-34
2021/12/28 12:48:31;;;;;;;;;;;23.10;52.50;;;;;;5033589;28;971;-36
2021/12/28 12:51:12;;;;;;;;;;;23.10;52.50;;;;;;5032652;28;1035;-35
2021/12/28 12:53:43;;;;;;;;;;;23.10;52.60;;;;;;5030385;28;1898;-37
2021/12/28 12:56:13;;;;;;;;;;;23.00;52.50;;;;;;5031528;28;1059;-36
2021/12/28 12:58:40;;;;;;;;;;;23.00;52.40;;;;;;5046704;28;1077;-35
2021/12/28 13:01:07;;;;;;;;;;;23.00;52.40;;;;;;5070117;28;969;-36
2021/12/28 13:03:35;;;;;;;;;;;23.00;52.50;;;;;;5071544;28;995;-36
2021/12/28 13:06:02;;;;;;;;;;;23.10;52.50;;;;;;5071943;28;956;-35
2021/12/28 13:08:29;;;;;;;;;;;23.10;52.40;;;;;;5072389;28;996;-35
2021/12/28 13:10:56;;;;;;;;;;;23.10;52.40;;;;;;5072523;28;952;-35
2021/12/28 13:13:22;;;;;;;;;;;23.00;52.40;;;;;;5072830;28;977;-36
2021/12/28 13:15:49;;;;;;;;;;;23.00;52.40;;;;;;5072664;28;1984;-35
2021/12/28 13:18:16;;;;;;;;;;;23.00;52.50;;;;;;5072288;28;1011;-35
2021/12/28 13:20:47;;;;;;;;;;;23.00;52.40;;;;;;5073288;28;1407;-35
2021/12/28 13:23:14;;;;;;;;;;;23.00;52.30;;;;;;5072924;28;1000;-36
2021/12/28 13:25:45;;;;;;;;;;;23.00;52.30;;;;;;5072310;28;1016;-36
2021/12/28 13:28:13;;;;;;;;;;;23.00;52.20;;;;;;5072422;28;965;-37
2021/12/28 13:30:41;;;;;;;;;;;23.00;53.40;;;;;;5074247;28;984;-38
2021/12/28 13:33:08;;;;;;;;;;;23.00;52.20;;;;;;5076361;28;1093;-42
2021/12/28 13:35:36;;;;;;;;;;;23.00;52.20;;;;;;5076549;28;1906;-41
2021/12/28 13:38:06;;;;;;;;;;;23.00;52.20;;;;;;5074944;27;1420;-44
2021/12/28 13:40:35;;;;;;;;;;;23.00;52.20;;;;;;5076058;28;1027;-43
2021/12/28 13:43:06;;;;;;;;;;;23.00;52.20;;;;;;5076989;28;1146;-44
2021/12/28 13:45:34;;;;;;;;;;;23.00;52.20;;;;;;5076135;28;932;-42
2021/12/28 13:48:03;;;;;;;;;;;23.00;52.20;;;;;;5077794;28;1035;-43
2021/12/28 13:50:29;;;;;;;;;;;23.00;52.00;;;;;;5076144;27;939;-44
2021/12/28 13:52:58;;;;;;;;;;;23.00;52.10;;;;;;5076365;28;997;-43
2021/12/28 13:55:27;;;;;;;;;;;23.00;51.90;;;;;;5076364;28;1965;-42
2021/12/28 13:57:54;;;;;;;;;;;23.00;52.00;;;;;;5077850;28;1062;-43
2021/12/28 14:00:22;;;;;;;;;;;23.00;51.90;;;;;;5072912;28;1058;-44
2021/12/28 14:02:56;;;;;;;;;;;23.10;52.00;;;;;;5076097;28;916;-44
2021/12/28 14:05:24;;;;;;;;;;;23.00;52.10;;;;;;5075375;28;916;-41
2021/12/28 14:07:51;;;;;;;;;;;23.00;51.90;;;;;;5075942;28;1053;-44
2021/12/28 14:10:19;;;;;;;;;;;23.00;52.00;;;;;;5074555;28;1036;-36
2021/12/28 14:13:01;;;;;;;;;;;23.10;52.00;;;;;;5075162;28;1015;-37
2021/12/28 14:15:29;;;;;;;;;;;23.00;52.00;;;;;;5074995;28;1910;-37
2021/12/28 14:17:56;;;;;;;;;;;23.00;52.00;;;;;;5075146;28;1002;-39
2021/12/28 14:20:27;;;;;;;;;;;23.00;52.00;;;;;;5074182;28;996;-38
2021/12/28 14:22:54;;;;;;;;;;;23.00;52.10;;;;;;5075041;28;1031;-37
2021/12/28 14:25:20;;;;;;;;;;;23.00;51.90;;;;;;5073638;28;988;-35
2021/12/28 14:27:54;;;;;;;;;;;23.10;51.80;;;;;;5074752;28;984;-37
2021/12/28 14:30:24;;;;;;;;;;;23.10;51.60;;;;;;5073560;28;1460;-35
2021/12/28 14:32:52;;;;;;;;;;;23.10;51.70;;;;;;5075599;28;1023;-37
2021/12/28 14:35:20;;;;;;;;;;;23.10;51.50;;;;;;5075416;28;1897;-37
2021/12/28 14:37:47;;;;;;;;;;;23.10;51.50;;;;;;5075474;28;1055;-41
2021/12/28 14:40:16;;;;;;;;;;;23.10;51.40;;;;;;5075301;28;932;-38